Terminal Aerodrome Forecast
Issued by NWS

Home | Current Version | Previous Version | Text Only | Print | Product List | Glossary On
Versions: 1 2 3 4 5 6 7 8 9 10 11 12 13 14 15 16 17 18 19 20 21 22 23 24 25 26 27 28 29
878
FTUS45 KSLC 230542
TAFOGD
TAF
KOGD 230542Z 2306/2406 17005KT P6SM BKN200
     FM231900 25006KT P6SM SCT080 BKN120
     FM232200 30009KT P6SM VCSH SCT050 BKN100
     FM240300 17006KT P6SM SCT070 BKN120=

USA.gov is the U.S. government's official web portal to all federal, state and local government web resources and services.